Time;durP1;ratioP1;P1;durP2;ratioP2;P2;SDS_P1;SDS_P2;PMS_P1;PMS_P2;Temp;Humidity;BMP_temperature;BMP_pressure;BME280_temperature;BME280_humidity;BME280_pressure;Samples;Min_cycle;Max_cycle;Signal;HPM_P1;HPM_P2
2021/03/18 00:00:16;;;;;;;10.75;6.9;;;;;;;0.59;100;95620.34;;;;
2021/03/18 00:01:18;;;;;;;11.8;7.200001;;;;;;;0.48;100;95625.08;;;;
2021/03/18 00:02:19;;;;;;;11.8;7.200001;;;;;;;0.48;100;95625.08;;;;
2021/03/18 00:03:20;;;;;;;11.8;7.200001;;;;;;;0.48;100;95625.08;;;;
2021/03/18 00:04:24;;;;;;;11.8;7.200001;;;;;;;0.48;100;95625.08;;;;
2021/03/18 00:05:25;;;;;;;11.8;7.200001;;;;;;;0.48;100;95625.08;;;;
2021/03/18 00:06:25;;;;;;;11.8;7.200001;;;;;;;0.48;100;95625.08;;;;
2021/03/18 00:07:26;;;;;;;11.8;7.200001;;;;;;;0.48;100;95625.08;;;;
2021/03/18 00:08:27;;;;;;;11.8;7.200001;;;;;;;0.48;100;95625.08;;;;
2021/03/18 00:09:28;;;;;;;11.8;7.200001;;;;;;;0.48;100;95625.08;;;;
2021/03/18 00:10:28;;;;;;;11.8;7.200001;;;;;;;0.48;100;95625.08;;;;
2021/03/18 00:11:29;;;;;;;11.8;7.200001;;;;;;;0.48;100;95625.08;;;;
2021/03/18 00:12:29;;;;;;;10.65;7.95;;;;;;;0.41;100;95621.44;;;;
2021/03/18 00:13:30;;;;;;;10.65;7.95;;;;;;;0.41;100;95621.44;;;;
2021/03/18 00:14:31;;;;;;;10.65;7.95;;;;;;;0.41;100;95621.44;;;;
2021/03/18 00:15:32;;;;;;;10.65;7.95;;;;;;;0.41;100;95621.44;;;;
2021/03/18 00:16:33;;;;;;;10.65;7.95;;;;;;;0.41;100;95621.44;;;;
2021/03/18 00:17:34;;;;;;;10.65;7.95;;;;;;;0.41;100;95621.44;;;;
2021/03/18 00:18:34;;;;;;;10.65;7.95;;;;;;;0.41;100;95621.44;;;;
2021/03/18 00:19:40;;;;;;;10.65;7.95;;;;;;;0.41;100;95621.44;;;;
2021/03/18 00:20:41;;;;;;;10.65;7.95;;;;;;;0.41;100;95621.44;;;;
2021/03/18 00:21:42;;;;;;;10.65;7.95;;;;;;;0.41;100;95621.44;;;;
2021/03/18 00:22:43;;;;;;;12.3;7.8;;;;;;;0.44;100;95615.78;;;;
2021/03/18 00:23:44;;;;;;;12.3;7.8;;;;;;;0.44;100;95615.78;;;;
2021/03/18 00:24:44;;;;;;;12.3;7.8;;;;;;;0.44;100;95615.78;;;;
2021/03/18 00:25:45;;;;;;;12.3;7.8;;;;;;;0.44;100;95615.78;;;;
2021/03/18 00:26:45;;;;;;;12.3;7.8;;;;;;;0.44;100;95615.78;;;;
2021/03/18 00:27:46;;;;;;;12.3;7.8;;;;;;;0.44;100;95615.78;;;;
2021/03/18 00:28:47;;;;;;;12.3;7.8;;;;;;;0.44;100;95615.78;;;;
2021/03/18 00:29:48;;;;;;;12.3;7.8;;;;;;;0.44;100;95615.78;;;;
2021/03/18 00:30:49;;;;;;;12.3;7.8;;;;;;;0.44;100;95615.78;;;;
2021/03/18 00:31:49;;;;;;;12.3;7.8;;;;;;;0.44;100;95615.78;;;;
2021/03/18 00:32:50;;;;;;;12.3;7.8;;;;;;;0.44;100;95615.78;;;;
2021/03/18 00:33:51;;;;;;;12.9;7.75;;;;;;;0.51;100;95614.95;;;;
2021/03/18 00:34:53;;;;;;;12.9;7.75;;;;;;;0.51;100;95614.95;;;;
2021/03/18 00:35:53;;;;;;;12.9;7.75;;;;;;;0.51;100;95614.95;;;;
2021/03/18 00:36:56;;;;;;;12.9;7.75;;;;;;;0.51;100;95614.95;;;;
2021/03/18 00:37:56;;;;;;;12.9;7.75;;;;;;;0.51;100;95614.95;;;;
2021/03/18 00:38:57;;;;;;;12.9;7.75;;;;;;;0.51;100;95614.95;;;;
2021/03/18 00:39:59;;;;;;;12.9;7.75;;;;;;;0.51;100;95614.95;;;;
2021/03/18 00:41:00;;;;;;;12.9;7.75;;;;;;;0.51;100;95614.95;;;;
2021/03/18 00:42:04;;;;;;;12.9;7.75;;;;;;;0.51;100;95614.95;;;;
2021/03/18 00:43:05;;;;;;;12.9;7.75;;;;;;;0.51;100;95614.95;;;;
2021/03/18 00:44:09;;;;;;;12.6;7.7;;;;;;;0.46;100;95606.24;;;;
2021/03/18 00:45:09;;;;;;;12.6;7.7;;;;;;;0.46;100;95606.24;;;;
2021/03/18 00:46:11;;;;;;;12.6;7.7;;;;;;;0.46;100;95606.24;;;;
2021/03/18 00:47:12;;;;;;;12.6;7.7;;;;;;;0.46;100;95606.24;;;;
2021/03/18 00:48:13;;;;;;;12.6;7.7;;;;;;;0.46;100;95606.24;;;;
2021/03/18 00:49:15;;;;;;;12.6;7.7;;;;;;;0.46;100;95606.24;;;;
2021/03/18 00:50:15;;;;;;;12.6;7.7;;;;;;;0.46;100;95606.24;;;;
2021/03/18 00:51:22;;;;;;;12.6;7.7;;;;;;;0.46;100;95606.24;;;;
2021/03/18 00:52:23;;;;;;;12.6;7.7;;;;;;;0.46;100;95606.24;;;;
2021/03/18 00:53:23;;;;;;;12.6;7.7;;;;;;;0.46;100;95606.24;;;;
2021/03/18 00:54:28;;;;;;;9;6.85;;;;;;;0.08;100;95598.92;;;;
2021/03/18 00:55:28;;;;;;;9;6.85;;;;;;;0.08;100;95598.92;;;;
2021/03/18 00:56:29;;;;;;;9;6.85;;;;;;;0.08;100;95598.92;;;;
2021/03/18 00:57:30;;;;;;;9;6.85;;;;;;;0.08;100;95598.92;;;;
2021/03/18 00:58:30;;;;;;;9;6.85;;;;;;;0.08;100;95598.92;;;;
2021/03/18 00:59:31;;;;;;;9;6.85;;;;;;;0.08;100;95598.92;;;;
2021/03/18 01:00:32;;;;;;;9;6.85;;;;;;;0.08;100;95598.92;;;;
2021/03/18 01:01:37;;;;;;;9;6.85;;;;;;;0.08;100;95598.92;;;;
2021/03/18 01:02:39;;;;;;;9;6.85;;;;;;;0.08;100;95598.92;;;;
2021/03/18 01:03:39;;;;;;;9;6.85;;;;;;;0.08;100;95598.92;;;;
2021/03/18 01:04:41;;;;;;;9;6.85;;;;;;;0.08;100;95598.92;;;;
2021/03/18 01:05:42;;;;;;;10.55;7.599999;;;;;;;-0.35;100;95593.86;;;;
2021/03/18 01:06:46;;;;;;;10.55;7.599999;;;;;;;-0.35;100;95593.86;;;;
2021/03/18 01:07:46;;;;;;;10.55;7.599999;;;;;;;-0.35;100;95593.86;;;;
2021/03/18 01:08:47;;;;;;;10.55;7.599999;;;;;;;-0.35;100;95593.86;;;;
2021/03/18 01:09:48;;;;;;;10.55;7.599999;;;;;;;-0.35;100;95593.86;;;;
2021/03/18 01:10:49;;;;;;;10.55;7.599999;;;;;;;-0.35;100;95593.86;;;;
2021/03/18 01:11:52;;;;;;;10.55;7.599999;;;;;;;-0.35;100;95593.86;;;;
2021/03/18 01:12:52;;;;;;;10.55;7.599999;;;;;;;-0.35;100;95593.86;;;;
2021/03/18 01:13:53;;;;;;;10.55;7.599999;;;;;;;-0.35;100;95593.86;;;;
2021/03/18 01:14:57;;;;;;;10.55;7.599999;;;;;;;-0.35;100;95593.86;;;;
2021/03/18 01:15:57;;;;;;;14.8;8.4;;;;;;;-0.62;100;95599.41;;;;
2021/03/18 01:17:01;;;;;;;14.8;8.4;;;;;;;-0.62;100;95599.41;;;;
2021/03/18 01:18:02;;;;;;;14.8;8.4;;;;;;;-0.62;100;95599.41;;;;
2021/03/18 01:19:07;;;;;;;14.8;8.4;;;;;;;-0.62;100;95599.41;;;;
2021/03/18 01:20:10;;;;;;;14.8;8.4;;;;;;;-0.62;100;95599.41;;;;
2021/03/18 01:21:13;;;;;;;14.8;8.4;;;;;;;-0.62;100;95599.41;;;;
2021/03/18 01:22:15;;;;;;;14.8;8.4;;;;;;;-0.62;100;95599.41;;;;
2021/03/18 01:23:15;;;;;;;14.8;8.4;;;;;;;-0.62;100;95599.41;;;;
2021/03/18 01:24:16;;;;;;;14.8;8.4;;;;;;;-0.62;100;95599.41;;;;
2021/03/18 01:25:16;;;;;;;14.8;8.4;;;;;;;-0.62;100;95599.41;;;;
2021/03/18 01:26:17;;;;;;;14.8;8.4;;;;;;;-0.62;100;95599.41;;;;
2021/03/18 01:27:18;;;;;;;15.8;9.349998;;;;;;;-0.52;100;95591.75;;;;
2021/03/18 01:28:19;;;;;;;15.8;9.349998;;;;;;;-0.52;100;95591.75;;;;
2021/03/18 01:29:19;;;;;;;15.8;9.349998;;;;;;;-0.52;100;95591.75;;;;
2021/03/18 01:30:20;;;;;;;15.8;9.349998;;;;;;;-0.52;100;95591.75;;;;
2021/03/18 01:31:24;;;;;;;15.8;9.349998;;;;;;;-0.52;100;95591.75;;;;
2021/03/18 01:32:25;;;;;;;15.8;9.349998;;;;;;;-0.52;100;95591.75;;;;
2021/03/18 01:33:25;;;;;;;15.8;9.349998;;;;;;;-0.52;100;95591.75;;;;
2021/03/18 01:34:27;;;;;;;15.8;9.349998;;;;;;;-0.52;100;95591.75;;;;
2021/03/18 01:35:27;;;;;;;15.8;9.349998;;;;;;;-0.52;100;95591.75;;;;
2021/03/18 01:36:29;;;;;;;15.8;9.349998;;;;;;;-0.52;100;95591.75;;;;
2021/03/18 01:37:31;;;;;;;15.8;10.1;;;;;;;-0.31;100;95588.58;;;;
2021/03/18 01:38:32;;;;;;;15.8;10.1;;;;;;;-0.31;100;95588.58;;;;
2021/03/18 01:39:34;;;;;;;15.8;10.1;;;;;;;-0.31;100;95588.58;;;;
2021/03/18 01:40:34;;;;;;;15.8;10.1;;;;;;;-0.31;100;95588.58;;;;
2021/03/18 01:41:35;;;;;;;15.8;10.1;;;;;;;-0.31;100;95588.58;;;;
2021/03/18 01:42:36;;;;;;;15.8;10.1;;;;;;;-0.31;100;95588.58;;;;
2021/03/18 01:43:38;;;;;;;15.8;10.1;;;;;;;-0.31;100;95588.58;;;;
2021/03/18 01:44:38;;;;;;;15.8;10.1;;;;;;;-0.31;100;95588.58;;;;
2021/03/18 01:45:39;;;;;;;15.8;10.1;;;;;;;-0.31;100;95588.58;;;;
2021/03/18 01:46:40;;;;;;;15.8;10.1;;;;;;;-0.31;100;95588.58;;;;
2021/03/18 01:47:40;;;;;;;13.8;8.75;;;;;;;-0.15;100;95587.28;;;;
2021/03/18 01:48:42;;;;;;;13.8;8.75;;;;;;;-0.15;100;95587.28;;;;
2021/03/18 01:49:43;;;;;;;13.8;8.75;;;;;;;-0.15;100;95587.28;;;;
2021/03/18 01:50:44;;;;;;;13.8;8.75;;;;;;;-0.15;100;95587.28;;;;
2021/03/18 01:51:45;;;;;;;13.8;8.75;;;;;;;-0.15;100;95587.28;;;;
2021/03/18 01:52:45;;;;;;;13.8;8.75;;;;;;;-0.15;100;95587.28;;;;
2021/03/18 01:53:46;;;;;;;13.8;8.75;;;;;;;-0.15;100;95587.28;;;;
2021/03/18 01:54:47;;;;;;;13.8;8.75;;;;;;;-0.15;100;95587.28;;;;
2021/03/18 01:55:48;;;;;;;13.8;8.75;;;;;;;-0.15;100;95587.28;;;;
2021/03/18 01:56:51;;;;;;;13.8;8.75;;;;;;;-0.15;100;95587.28;;;;
2021/03/18 01:57:51;;;;;;;13.8;8.75;;;;;;;-0.15;100;95587.28;;;;
2021/03/18 01:58:52;;;;;;;12.9;7.55;;;;;;;-0.02;100;95596.51;;;;
2021/03/18 01:59:52;;;;;;;12.9;7.55;;;;;;;-0.02;100;95596.51;;;;
2021/03/18 02:00:54;;;;;;;12.9;7.55;;;;;;;-0.02;100;95596.51;;;;
2021/03/18 02:01:58;;;;;;;12.9;7.55;;;;;;;-0.02;100;95596.51;;;;
2021/03/18 02:02:59;;;;;;;12.9;7.55;;;;;;;-0.02;100;95596.51;;;;
2021/03/18 02:04:01;;;;;;;12.9;7.55;;;;;;;-0.02;100;95596.51;;;;
2021/03/18 02:05:02;;;;;;;12.9;7.55;;;;;;;-0.02;100;95596.51;;;;
2021/03/18 02:06:04;;;;;;;12.9;7.55;;;;;;;-0.02;100;95596.51;;;;
2021/03/18 02:07:06;;;;;;;12.9;7.55;;;;;;;-0.02;100;95596.51;;;;
2021/03/18 02:08:06;;;;;;;12.9;7.55;;;;;;;-0.02;100;95596.51;;;;
2021/03/18 02:09:07;;;;;;;14.1;8.099999;;;;;;;0.03;100;95590.2;;;;
2021/03/18 02:10:07;;;;;;;14.1;8.099999;;;;;;;0.03;100;95590.2;;;;
2021/03/18 02:11:10;;;;;;;14.1;8.099999;;;;;;;0.03;100;95590.2;;;;
2021/03/18 02:12:10;;;;;;;14.1;8.099999;;;;;;;0.03;100;95590.2;;;;
2021/03/18 02:13:11;;;;;;;14.1;8.099999;;;;;;;0.03;100;95590.2;;;;
2021/03/18 02:14:15;;;;;;;14.1;8.099999;;;;;;;0.03;100;95590.2;;;;
2021/03/18 02:15:16;;;;;;;14.1;8.099999;;;;;;;0.03;100;95590.2;;;;
2021/03/18 02:16:18;;;;;;;14.1;8.099999;;;;;;;0.03;100;95590.2;;;;
2021/03/18 02:17:18;;;;;;;14.1;8.099999;;;;;;;0.03;100;95590.2;;;;
2021/03/18 02:18:25;;;;;;;14.1;8.099999;;;;;;;0.03;100;95590.2;;;;
2021/03/18 02:19:34;;;;;;;14.1;8.099999;;;;;;;0.03;100;95590.2;;;;
2021/03/18 02:21:02;;;;;;;17.55;8.000002;;;;;;;0.11;100;95578.25;;;;
2021/03/18 02:22:23;;;;;;;17.55;8.000002;;;;;;;0.11;100;95578.25;;;;
2021/03/18 02:23:36;;;;;;;17.55;8.000002;;;;;;;0.11;100;95578.25;;;;
2021/03/18 02:25:20;;;;;;;17.55;8.000002;;;;;;;0.11;100;95578.25;;;;
2021/03/18 02:26:25;;;;;;;17.55;8.000002;;;;;;;0.11;100;95578.25;;;;
2021/03/18 02:27:54;;;;;;;17.55;8.000002;;;;;;;0.11;100;95578.25;;;;
2021/03/18 02:29:31;;;;;;;17.55;8.000002;;;;;;;0.11;100;95578.25;;;;
2021/03/18 02:30:59;;;;;;;16.1;8.149999;;;;;;;0.06;100;95579.67;;;;
2021/03/18 02:32:04;;;;;;;16.1;8.149999;;;;;;;0.06;100;95579.67;;;;
2021/03/18 02:33:17;;;;;;;16.1;8.149999;;;;;;;0.06;100;95579.67;;;;
2021/03/18 02:35:12;;;;;;;16.1;8.149999;;;;;;;0.06;100;95579.67;;;;
2021/03/18 02:36:20;;;;;;;16.1;8.149999;;;;;;;0.06;100;95579.67;;;;
2021/03/18 02:37:26;;;;;;;16.1;8.149999;;;;;;;0.06;100;95579.67;;;;
2021/03/18 02:38:30;;;;;;;16.1;8.149999;;;;;;;0.06;100;95579.67;;;;
2021/03/18 02:39:34;;;;;;;16.1;8.149999;;;;;;;0.06;100;95579.67;;;;
2021/03/18 02:40:39;;;;;;;16.1;8.149999;;;;;;;0.06;100;95579.67;;;;
2021/03/18 02:41:43;;;;;;;14.55;7.849999;;;;;;;-0.01;100;95577.76;;;;
2021/03/18 02:42:48;;;;;;;14.55;7.849999;;;;;;;-0.01;100;95577.76;;;;
2021/03/18 02:43:54;;;;;;;14.55;7.849999;;;;;;;-0.01;100;95577.76;;;;
2021/03/18 02:45:01;;;;;;;14.55;7.849999;;;;;;;-0.01;100;95577.76;;;;
2021/03/18 02:46:05;;;;;;;14.55;7.849999;;;;;;;-0.01;100;95577.76;;;;
2021/03/18 02:47:06;;;;;;;14.55;7.849999;;;;;;;-0.01;100;95577.76;;;;
2021/03/18 02:48:09;;;;;;;14.55;7.849999;;;;;;;-0.01;100;95577.76;;;;
2021/03/18 02:49:17;;;;;;;14.55;7.849999;;;;;;;-0.01;100;95577.76;;;;
2021/03/18 02:50:19;;;;;;;14.55;7.849999;;;;;;;-0.01;100;95577.76;;;;
2021/03/18 02:51:21;;;;;;;14.55;7.849999;;;;;;;-0.01;100;95577.76;;;;
2021/03/18 02:52:26;;;;;;;15;8.549999;;;;;;;-0.03;100;95585.97;;;;
2021/03/18 02:53:28;;;;;;;15;8.549999;;;;;;;-0.03;100;95585.97;;;;
2021/03/18 02:54:31;;;;;;;15;8.549999;;;;;;;-0.03;100;95585.97;;;;
2021/03/18 02:55:33;;;;;;;15;8.549999;;;;;;;-0.03;100;95585.97;;;;
2021/03/18 02:56:36;;;;;;;15;8.549999;;;;;;;-0.03;100;95585.97;;;;
2021/03/18 02:57:40;;;;;;;15;8.549999;;;;;;;-0.03;100;95585.97;;;;
2021/03/18 02:58:42;;;;;;;15;8.549999;;;;;;;-0.03;100;95585.97;;;;
2021/03/18 02:59:45;;;;;;;15;8.549999;;;;;;;-0.03;100;95585.97;;;;
2021/03/18 03:00:47;;;;;;;15;8.549999;;;;;;;-0.03;100;95585.97;;;;
2021/03/18 03:01:50;;;;;;;15;8.549999;;;;;;;-0.03;100;95585.97;;;;
2021/03/18 03:02:52;;;;;;;15.6;7.75;;;;;;;0;100;95586.99;;;;
2021/03/18 03:03:54;;;;;;;15.6;7.75;;;;;;;0;100;95586.99;;;;
2021/03/18 03:04:55;;;;;;;15.6;7.75;;;;;;;0;100;95586.99;;;;
2021/03/18 03:05:57;;;;;;;15.6;7.75;;;;;;;0;100;95586.99;;;;
2021/03/18 03:07:00;;;;;;;15.6;7.75;;;;;;;0;100;95586.99;;;;
2021/03/18 03:08:02;;;;;;;15.6;7.75;;;;;;;0;100;95586.99;;;;
2021/03/18 03:09:07;;;;;;;15.6;7.75;;;;;;;0;100;95586.99;;;;
2021/03/18 03:10:09;;;;;;;15.6;7.75;;;;;;;0;100;95586.99;;;;
2021/03/18 03:11:11;;;;;;;15.6;7.75;;;;;;;0;100;95586.99;;;;
2021/03/18 03:12:12;;;;;;;15.6;7.75;;;;;;;0;100;95586.99;;;;
2021/03/18 03:13:16;;;;;;;15.1;7.999999;;;;;;;0;100;95594.01;;;;
2021/03/18 03:14:17;;;;;;;15.1;7.999999;;;;;;;0;100;95594.01;;;;
2021/03/18 03:15:19;;;;;;;15.1;7.999999;;;;;;;0;100;95594.01;;;;
2021/03/18 03:16:20;;;;;;;15.1;7.999999;;;;;;;0;100;95594.01;;;;
2021/03/18 03:17:23;;;;;;;15.1;7.999999;;;;;;;0;100;95594.01;;;;
2021/03/18 03:18:26;;;;;;;15.1;7.999999;;;;;;;0;100;95594.01;;;;
2021/03/18 03:19:27;;;;;;;15.1;7.999999;;;;;;;0;100;95594.01;;;;
2021/03/18 03:20:29;;;;;;;15.1;7.999999;;;;;;;0;100;95594.01;;;;
2021/03/18 03:21:31;;;;;;;15.1;7.999999;;;;;;;0;100;95594.01;;;;
2021/03/18 03:22:32;;;;;;;15.1;7.999999;;;;;;;0;100;95594.01;;;;
2021/03/18 03:23:35;;;;;;;15.1;7.999999;;;;;;;0;100;95594.01;;;;
2021/03/18 03:24:37;;;;;;;15.7;7.8;;;;;;;0.03;100;95600.33;;;;
2021/03/18 03:25:40;;;;;;;15.7;7.8;;;;;;;0.03;100;95600.33;;;;
2021/03/18 03:26:41;;;;;;;15.7;7.8;;;;;;;0.03;100;95600.33;;;;
2021/03/18 03:27:41;;;;;;;15.7;7.8;;;;;;;0.03;100;95600.33;;;;
2021/03/18 03:28:45;;;;;;;15.7;7.8;;;;;;;0.03;100;95600.33;;;;
2021/03/18 03:29:47;;;;;;;15.7;7.8;;;;;;;0.03;100;95600.33;;;;
2021/03/18 03:30:48;;;;;;;15.7;7.8;;;;;;;0.03;100;95600.33;;;;
2021/03/18 03:31:49;;;;;;;15.7;7.8;;;;;;;0.03;100;95600.33;;;;
2021/03/18 03:32:49;;;;;;;15.7;7.8;;;;;;;0.03;100;95600.33;;;;
2021/03/18 03:33:50;;;;;;;15.7;7.8;;;;;;;0.03;100;95600.33;;;;
2021/03/18 03:34:51;;;;;;;14.6;7.950001;;;;;;;0.07;100;95613.69;;;;
2021/03/18 03:35:52;;;;;;;14.6;7.950001;;;;;;;0.07;100;95613.69;;;;
2021/03/18 03:36:53;;;;;;;14.6;7.950001;;;;;;;0.07;100;95613.69;;;;
2021/03/18 03:37:54;;;;;;;14.6;7.950001;;;;;;;0.07;100;95613.69;;;;
2021/03/18 03:38:54;;;;;;;14.6;7.950001;;;;;;;0.07;100;95613.69;;;;
2021/03/18 03:39:55;;;;;;;14.6;7.950001;;;;;;;0.07;100;95613.69;;;;
2021/03/18 03:40:56;;;;;;;14.6;7.950001;;;;;;;0.07;100;95613.69;;;;
2021/03/18 03:41:57;;;;;;;14.6;7.950001;;;;;;;0.07;100;95613.69;;;;
2021/03/18 03:42:58;;;;;;;14.6;7.950001;;;;;;;0.07;100;95613.69;;;;
2021/03/18 03:43:59;;;;;;;14.6;7.950001;;;;;;;0.07;100;95613.69;;;;
2021/03/18 03:45:00;;;;;;;14.6;7.950001;;;;;;;0.07;100;95613.69;;;;
2021/03/18 03:46:00;;;;;;;15.4;8.55;;;;;;;0.12;100;95619.33;;;;
2021/03/18 03:47:02;;;;;;;15.4;8.55;;;;;;;0.12;100;95619.33;;;;
2021/03/18 03:48:04;;;;;;;15.4;8.55;;;;;;;0.12;100;95619.33;;;;
2021/03/18 03:49:06;;;;;;;15.4;8.55;;;;;;;0.12;100;95619.33;;;;
2021/03/18 03:50:09;;;;;;;15.4;8.55;;;;;;;0.12;100;95619.33;;;;
2021/03/18 03:51:14;;;;;;;15.4;8.55;;;;;;;0.12;100;95619.33;;;;
2021/03/18 03:52:15;;;;;;;15.4;8.55;;;;;;;0.12;100;95619.33;;;;
2021/03/18 03:53:23;;;;;;;15.4;8.55;;;;;;;0.12;100;95619.33;;;;
2021/03/18 03:54:31;;;;;;;15.4;8.55;;;;;;;0.12;100;95619.33;;;;
2021/03/18 03:55:36;;;;;;;15.4;8.55;;;;;;;0.12;100;95619.33;;;;
2021/03/18 03:56:46;;;;;;;15.25;8.900002;;;;;;;0.16;100;95622;;;;
2021/03/18 03:57:54;;;;;;;15.25;8.900002;;;;;;;0.16;100;95622;;;;
2021/03/18 03:58:58;;;;;;;15.25;8.900002;;;;;;;0.16;100;95622;;;;
2021/03/18 04:00:02;;;;;;;15.25;8.900002;;;;;;;0.16;100;95622;;;;
2021/03/18 04:01:08;;;;;;;15.25;8.900002;;;;;;;0.16;100;95622;;;;
2021/03/18 04:02:16;;;;;;;15.25;8.900002;;;;;;;0.16;100;95622;;;;
2021/03/18 04:03:17;;;;;;;15.25;8.900002;;;;;;;0.16;100;95622;;;;
2021/03/18 04:04:18;;;;;;;15.25;8.900002;;;;;;;0.16;100;95622;;;;
2021/03/18 04:05:22;;;;;;;15.25;8.900002;;;;;;;0.16;100;95622;;;;
2021/03/18 04:06:24;;;;;;;15.25;8.900002;;;;;;;0.16;100;95622;;;;
2021/03/18 04:07:26;;;;;;;18.65;9.45;;;;;;;0.13;100;95628.03;;;;
2021/03/18 04:08:31;;;;;;;18.65;9.45;;;;;;;0.13;100;95628.03;;;;
2021/03/18 04:09:35;;;;;;;18.65;9.45;;;;;;;0.13;100;95628.03;;;;
2021/03/18 04:10:37;;;;;;;18.65;9.45;;;;;;;0.13;100;95628.03;;;;
2021/03/18 04:11:41;;;;;;;18.65;9.45;;;;;;;0.13;100;95628.03;;;;
2021/03/18 04:12:43;;;;;;;18.65;9.45;;;;;;;0.13;100;95628.03;;;;
2021/03/18 04:13:46;;;;;;;18.65;9.45;;;;;;;0.13;100;95628.03;;;;
2021/03/18 04:14:48;;;;;;;18.65;9.45;;;;;;;0.13;100;95628.03;;;;
2021/03/18 04:15:53;;;;;;;18.65;9.45;;;;;;;0.13;100;95628.03;;;;
2021/03/18 04:16:57;;;;;;;18.65;9.45;;;;;;;0.13;100;95628.03;;;;
2021/03/18 04:18:03;;;;;;;19.05;10.25;;;;;;;-0.1;100;95632.72;;;;
2021/03/18 04:19:05;;;;;;;19.05;10.25;;;;;;;-0.1;100;95632.72;;;;
2021/03/18 04:20:08;;;;;;;19.05;10.25;;;;;;;-0.1;100;95632.72;;;;
2021/03/18 04:21:12;;;;;;;19.05;10.25;;;;;;;-0.1;100;95632.72;;;;
2021/03/18 04:22:14;;;;;;;19.05;10.25;;;;;;;-0.1;100;95632.72;;;;
2021/03/18 04:23:16;;;;;;;19.05;10.25;;;;;;;-0.1;100;95632.72;;;;
2021/03/18 04:24:17;;;;;;;19.05;10.25;;;;;;;-0.1;100;95632.72;;;;
2021/03/18 04:25:19;;;;;;;19.05;10.25;;;;;;;-0.1;100;95632.72;;;;
2021/03/18 04:26:22;;;;;;;19.05;10.25;;;;;;;-0.1;100;95632.72;;;;
2021/03/18 04:27:23;;;;;;;19.05;10.25;;;;;;;-0.1;100;95632.72;;;;
2021/03/18 04:28:24;;;;;;;18.6;9.7;;;;;;;-0.2;100;95630.2;;;;
2021/03/18 04:29:27;;;;;;;18.6;9.7;;;;;;;-0.2;100;95630.2;;;;
2021/03/18 04:30:30;;;;;;;18.6;9.7;;;;;;;-0.2;100;95630.2;;;;
2021/03/18 04:31:33;;;;;;;18.6;9.7;;;;;;;-0.2;100;95630.2;;;;
2021/03/18 04:32:37;;;;;;;18.6;9.7;;;;;;;-0.2;100;95630.2;;;;
2021/03/18 04:33:39;;;;;;;18.6;9.7;;;;;;;-0.2;100;95630.2;;;;
2021/03/18 04:34:41;;;;;;;18.6;9.7;;;;;;;-0.2;100;95630.2;;;;
2021/03/18 04:35:43;;;;;;;18.6;9.7;;;;;;;-0.2;100;95630.2;;;;
2021/03/18 04:36:44;;;;;;;18.6;9.7;;;;;;;-0.2;100;95630.2;;;;
2021/03/18 04:37:45;;;;;;;18.6;9.7;;;;;;;-0.2;100;95630.2;;;;
2021/03/18 04:38:47;;;;;;;20.65;10.3;;;;;;;-0.18;100;95629.65;;;;
2021/03/18 04:39:47;;;;;;;20.65;10.3;;;;;;;-0.18;100;95629.65;;;;
2021/03/18 04:40:49;;;;;;;20.65;10.3;;;;;;;-0.18;100;95629.65;;;;
2021/03/18 04:41:50;;;;;;;20.65;10.3;;;;;;;-0.18;100;95629.65;;;;
2021/03/18 04:42:52;;;;;;;20.65;10.3;;;;;;;-0.18;100;95629.65;;;;
2021/03/18 04:43:53;;;;;;;20.65;10.3;;;;;;;-0.18;100;95629.65;;;;
2021/03/18 04:44:55;;;;;;;20.65;10.3;;;;;;;-0.18;100;95629.65;;;;
2021/03/18 04:45:56;;;;;;;20.65;10.3;;;;;;;-0.18;100;95629.65;;;;
2021/03/18 04:46:59;;;;;;;20.65;10.3;;;;;;;-0.18;100;95629.65;;;;
2021/03/18 04:48:01;;;;;;;20.65;10.3;;;;;;;-0.18;100;95629.65;;;;
2021/03/18 04:49:02;;;;;;;20.65;10.3;;;;;;;-0.18;100;95629.65;;;;
2021/03/18 04:50:04;;;;;;;21.1;10.75;;;;;;;-0.15;100;95637.2;;;;
2021/03/18 04:51:07;;;;;;;21.1;10.75;;;;;;;-0.15;100;95637.2;;;;
2021/03/18 04:52:08;;;;;;;21.1;10.75;;;;;;;-0.15;100;95637.2;;;;
2021/03/18 04:53:12;;;;;;;21.1;10.75;;;;;;;-0.15;100;95637.2;;;;
2021/03/18 04:54:13;;;;;;;21.1;10.75;;;;;;;-0.15;100;95637.2;;;;
2021/03/18 04:55:14;;;;;;;21.1;10.75;;;;;;;-0.15;100;95637.2;;;;
2021/03/18 04:56:18;;;;;;;21.1;10.75;;;;;;;-0.15;100;95637.2;;;;
2021/03/18 04:57:21;;;;;;;21.1;10.75;;;;;;;-0.15;100;95637.2;;;;
2021/03/18 04:58:24;;;;;;;21.1;10.75;;;;;;;-0.15;100;95637.2;;;;
2021/03/18 04:59:26;;;;;;;21.1;10.75;;;;;;;-0.15;100;95637.2;;;;
2021/03/18 05:00:27;;;;;;;19.6;10.35;;;;;;;-0.12;100;95640.01;;;;
2021/03/18 05:01:28;;;;;;;19.6;10.35;;;;;;;-0.12;100;95640.01;;;;
2021/03/18 05:02:30;;;;;;;19.6;10.35;;;;;;;-0.12;100;95640.01;;;;
2021/03/18 05:03:33;;;;;;;19.6;10.35;;;;;;;-0.12;100;95640.01;;;;
2021/03/18 05:04:35;;;;;;;19.6;10.35;;;;;;;-0.12;100;95640.01;;;;
2021/03/18 05:05:36;;;;;;;19.6;10.35;;;;;;;-0.12;100;95640.01;;;;
2021/03/18 05:06:38;;;;;;;19.6;10.35;;;;;;;-0.12;100;95640.01;;;;
2021/03/18 05:07:40;;;;;;;19.6;10.35;;;;;;;-0.12;100;95640.01;;;;
2021/03/18 05:08:42;;;;;;;19.6;10.35;;;;;;;-0.12;100;95640.01;;;;
2021/03/18 05:09:43;;;;;;;19.6;10.35;;;;;;;-0.12;100;95640.01;;;;
2021/03/18 05:10:44;;;;;;;21.15;11;;;;;;;-0.07;100;95639.01;;;;
2021/03/18 05:11:46;;;;;;;21.15;11;;;;;;;-0.07;100;95639.01;;;;
2021/03/18 05:12:47;;;;;;;21.15;11;;;;;;;-0.07;100;95639.01;;;;
2021/03/18 05:13:50;;;;;;;21.15;11;;;;;;;-0.07;100;95639.01;;;;
2021/03/18 05:14:51;;;;;;;21.15;11;;;;;;;-0.07;100;95639.01;;;;
2021/03/18 05:15:52;;;;;;;21.15;11;;;;;;;-0.07;100;95639.01;;;;
2021/03/18 05:16:56;;;;;;;21.15;11;;;;;;;-0.07;100;95639.01;;;;
2021/03/18 05:17:57;;;;;;;21.15;11;;;;;;;-0.07;100;95639.01;;;;
2021/03/18 05:18:58;;;;;;;21.15;11;;;;;;;-0.07;100;95639.01;;;;
2021/03/18 05:19:59;;;;;;;21.15;11;;;;;;;-0.07;100;95639.01;;;;
2021/03/18 05:21:00;;;;;;;21.15;11;;;;;;;-0.07;100;95639.01;;;;
2021/03/18 05:22:03;;;;;;;23.85;11.75;;;;;;;0.02;100;95635.91;;;;
2021/03/18 05:23:04;;;;;;;23.85;11.75;;;;;;;0.02;100;95635.91;;;;
2021/03/18 05:24:06;;;;;;;23.85;11.75;;;;;;;0.02;100;95635.91;;;;
2021/03/18 05:25:09;;;;;;;23.85;11.75;;;;;;;0.02;100;95635.91;;;;
2021/03/18 05:26:11;;;;;;;23.85;11.75;;;;;;;0.02;100;95635.91;;;;
2021/03/18 05:27:11;;;;;;;23.85;11.75;;;;;;;0.02;100;95635.91;;;;
2021/03/18 05:28:12;;;;;;;23.85;11.75;;;;;;;0.02;100;95635.91;;;;
2021/03/18 05:29:13;;;;;;;23.85;11.75;;;;;;;0.02;100;95635.91;;;;
2021/03/18 05:30:15;;;;;;;23.85;11.75;;;;;;;0.02;100;95635.91;;;;
2021/03/18 05:31:17;;;;;;;23.85;11.75;;;;;;;0.02;100;95635.91;;;;
2021/03/18 05:32:17;;;;;;;21.35;11.05;;;;;;;0.05;100;95635.1;;;;
2021/03/18 05:33:18;;;;;;;21.35;11.05;;;;;;;0.05;100;95635.1;;;;
2021/03/18 05:34:18;;;;;;;21.35;11.05;;;;;;;0.05;100;95635.1;;;;
2021/03/18 05:35:19;;;;;;;21.35;11.05;;;;;;;0.05;100;95635.1;;;;
2021/03/18 05:36:19;;;;;;;21.35;11.05;;;;;;;0.05;100;95635.1;;;;
2021/03/18 05:37:20;;;;;;;21.35;11.05;;;;;;;0.05;100;95635.1;;;;
2021/03/18 05:38:21;;;;;;;21.35;11.05;;;;;;;0.05;100;95635.1;;;;
2021/03/18 05:39:22;;;;;;;21.35;11.05;;;;;;;0.05;100;95635.1;;;;
2021/03/18 05:40:22;;;;;;;21.35;11.05;;;;;;;0.05;100;95635.1;;;;
2021/03/18 05:41:23;;;;;;;21.35;11.05;;;;;;;0.05;100;95635.1;;;;
2021/03/18 05:42:24;;;;;;;21.35;11.05;;;;;;;0.05;100;95635.1;;;;
2021/03/18 05:43:25;;;;;;;21.35;11.65;;;;;;;0.07;100;95643.3;;;;
2021/03/18 05:44:26;;;;;;;21.35;11.65;;;;;;;0.07;100;95643.3;;;;
2021/03/18 05:45:27;;;;;;;21.35;11.65;;;;;;;0.07;100;95643.3;;;;
2021/03/18 05:46:29;;;;;;;21.35;11.65;;;;;;;0.07;100;95643.3;;;;
2021/03/18 05:47:30;;;;;;;21.35;11.65;;;;;;;0.07;100;95643.3;;;;
2021/03/18 05:48:31;;;;;;;21.35;11.65;;;;;;;0.07;100;95643.3;;;;
2021/03/18 05:49:33;;;;;;;21.35;11.65;;;;;;;0.07;100;95643.3;;;;
2021/03/18 05:50:34;;;;;;;21.35;11.65;;;;;;;0.07;100;95643.3;;;;
2021/03/18 05:51:35;;;;;;;21.35;11.65;;;;;;;0.07;100;95643.3;;;;
2021/03/18 05:52:36;;;;;;;21.35;11.65;;;;;;;0.07;100;95643.3;;;;
2021/03/18 05:53:37;;;;;;;23.1;11.35;;;;;;;0.11;100;95648.11;;;;
2021/03/18 05:54:39;;;;;;;23.1;11.35;;;;;;;0.11;100;95648.11;;;;
2021/03/18 05:55:46;;;;;;;23.1;11.35;;;;;;;0.11;100;95648.11;;;;
2021/03/18 05:56:49;;;;;;;23.1;11.35;;;;;;;0.11;100;95648.11;;;;
2021/03/18 05:57:50;;;;;;;23.1;11.35;;;;;;;0.11;100;95648.11;;;;
2021/03/18 05:58:51;;;;;;;23.1;11.35;;;;;;;0.11;100;95648.11;;;;
2021/03/18 05:59:53;;;;;;;23.1;11.35;;;;;;;0.11;100;95648.11;;;;
2021/03/18 06:00:54;;;;;;;23.1;11.35;;;;;;;0.11;100;95648.11;;;;
2021/03/18 06:01:55;;;;;;;23.1;11.35;;;;;;;0.11;100;95648.11;;;;
2021/03/18 06:02:56;;;;;;;23.1;11.35;;;;;;;0.11;100;95648.11;;;;
2021/03/18 06:03:57;;;;;;;19.15;10.95;;;;;;;0.16;100;95648.96;;;;
2021/03/18 06:04:57;;;;;;;19.15;10.95;;;;;;;0.16;100;95648.96;;;;
2021/03/18 06:05:58;;;;;;;19.15;10.95;;;;;;;0.16;100;95648.96;;;;
2021/03/18 06:07:00;;;;;;;19.15;10.95;;;;;;;0.16;100;95648.96;;;;
2021/03/18 06:08:01;;;;;;;19.15;10.95;;;;;;;0.16;100;95648.96;;;;
2021/03/18 06:09:02;;;;;;;19.15;10.95;;;;;;;0.16;100;95648.96;;;;
2021/03/18 06:10:05;;;;;;;19.15;10.95;;;;;;;0.16;100;95648.96;;;;
2021/03/18 06:11:09;;;;;;;19.15;10.95;;;;;;;0.16;100;95648.96;;;;
2021/03/18 06:12:10;;;;;;;19.15;10.95;;;;;;;0.16;100;95648.96;;;;
2021/03/18 06:13:11;;;;;;;19.15;10.95;;;;;;;0.16;100;95648.96;;;;
2021/03/18 06:14:12;;;;;;;19.15;10.95;;;;;;;0.16;100;95648.96;;;;
2021/03/18 06:15:12;;;;;;;21.55;12.6;;;;;;;0.24;100;95652.94;;;;
2021/03/18 06:16:14;;;;;;;21.55;12.6;;;;;;;0.24;100;95652.94;;;;
2021/03/18 06:17:16;;;;;;;21.55;12.6;;;;;;;0.24;100;95652.94;;;;
2021/03/18 06:18:19;;;;;;;21.55;12.6;;;;;;;0.24;100;95652.94;;;;